sensor_id;sensor_type;location;lat;lon;timestamp;temperature;humidity
7936;DHT22;4013;49.744;8.118;2022-11-20T00:01:28;3.30;99.90
7936;DHT22;4013;49.744;8.118;2022-11-20T00:03:56;3.30;99.90
7936;DHT22;4013;49.744;8.118;2022-11-20T00:06:25;3.20;99.90
7936;DHT22;4013;49.744;8.118;2022-11-20T00:08:54;3.10;99.90
7936;DHT22;4013;49.744;8.118;2022-11-20T00:11:23;3.10;99.90
7936;DHT22;4013;49.744;8.118;2022-11-20T00:13:52;3.00;99.90
7936;DHT22;4013;49.744;8.118;2022-11-20T00:16:21;3.00;99.90
7936;DHT22;4013;49.744;8.118;2022-11-20T00:18:50;2.90;99.90
7936;DHT22;4013;49.744;8.118;2022-11-20T00:21:18;2.90;99.90
7936;DHT22;4013;49.744;8.118;2022-11-20T00:23:46;3.00;99.90
7936;DHT22;4013;49.744;8.118;2022-11-20T00:26:15;3.00;99.90
7936;DHT22;4013;49.744;8.118;2022-11-20T00:28:43;2.90;99.90
7936;DHT22;4013;49.744;8.118;2022-11-20T00:31:12;2.80;99.90
7936;DHT22;4013;49.744;8.118;2022-11-20T00:33:40;2.80;99.90
7936;DHT22;4013;49.744;8.118;2022-11-20T00:36:11;2.90;99.90
7936;DHT22;4013;49.744;8.118;2022-11-20T00:38:38;3.00;99.90
7936;DHT22;4013;49.744;8.118;2022-11-20T00:41:07;3.10;99.90
7936;DHT22;4013;49.744;8.118;2022-11-20T00:43:34;3.10;99.90
7936;DHT22;4013;49.744;8.118;2022-11-20T00:46:03;3.20;99.90
7936;DHT22;4013;49.744;8.118;2022-11-20T00:48:31;3.10;99.90
7936;DHT22;4013;49.744;8.118;2022-11-20T00:50:58;3.10;99.90
7936;DHT22;4013;49.744;8.118;2022-11-20T00:53:27;3.20;99.90
7936;DHT22;4013;49.744;8.118;2022-11-20T00:55:55;3.30;99.90
7936;DHT22;4013;49.744;8.118;2022-11-20T00:58:23;3.30;99.90
7936;DHT22;4013;49.744;8.118;2022-11-20T01:00:51;3.20;99.90
7936;DHT22;4013;49.744;8.118;2022-11-20T01:03:18;3.10;99.90
7936;DHT22;4013;49.744;8.118;2022-11-20T01:05:45;3.20;99.90
7936;DHT22;4013;49.744;8.118;2022-11-20T01:08:12;3.10;99.90
7936;DHT22;4013;49.744;8.118;2022-11-20T01:10:40;3.10;99.90
7936;DHT22;4013;49.744;8.118;2022-11-20T01:13:07;3.00;99.90
7936;DHT22;4013;49.744;8.118;2022-11-20T01:15:52;3.00;99.90
7936;DHT22;4013;49.744;8.118;2022-11-20T01:18:19;3.00;99.90
7936;DHT22;4013;49.744;8.118;2022-11-20T01:20:46;3.10;99.90
7936;DHT22;4013;49.744;8.118;2022-11-20T01:23:12;3.10;99.90
7936;DHT22;4013;49.744;8.118;2022-11-20T01:25:41;3.00;99.90
7936;DHT22;4013;49.744;8.118;2022-11-20T01:28:08;3.00;99.90
7936;DHT22;4013;49.744;8.118;2022-11-20T01:30:35;3.00;99.90
7936;DHT22;4013;49.744;8.118;2022-11-20T01:33:01;3.00;99.90
7936;DHT22;4013;49.744;8.118;2022-11-20T01:35:28;3.00;99.90
7936;DHT22;4013;49.744;8.118;2022-11-20T01:37:55;3.00;99.90
7936;DHT22;4013;49.744;8.118;2022-11-20T01:40:22;3.00;99.90
7936;DHT22;4013;49.744;8.118;2022-11-20T01:42:59;3.00;99.90
7936;DHT22;4013;49.744;8.118;2022-11-20T01:45:57;3.00;99.90
7936;DHT22;4013;49.744;8.118;2022-11-20T01:48:28;3.00;99.90
7936;DHT22;4013;49.744;8.118;2022-11-20T01:50:57;3.10;99.90
7936;DHT22;4013;49.744;8.118;2022-11-20T01:53:27;3.20;99.90
7936;DHT22;4013;49.744;8.118;2022-11-20T01:55:56;3.10;99.90
7936;DHT22;4013;49.744;8.118;2022-11-20T01:58:28;3.20;99.90
7936;DHT22;4013;49.744;8.118;2022-11-20T02:00:56;3.10;99.90
7936;DHT22;4013;49.744;8.118;2022-11-20T02:03:23;3.20;99.90
7936;DHT22;4013;49.744;8.118;2022-11-20T02:05:54;3.10;99.90
7936;DHT22;4013;49.744;8.118;2022-11-20T02:08:23;3.20;99.90
7936;DHT22;4013;49.744;8.118;2022-11-20T02:10:50;3.20;99.90
7936;DHT22;4013;49.744;8.118;2022-11-20T02:13:17;3.10;99.90
7936;DHT22;4013;49.744;8.118;2022-11-20T02:16:03;3.10;99.90
7936;DHT22;4013;49.744;8.118;2022-11-20T02:18:31;3.20;99.90
7936;DHT22;4013;49.744;8.118;2022-11-20T02:21:01;3.20;99.90
7936;DHT22;4013;49.744;8.118;2022-11-20T02:23:33;3.10;99.90
7936;DHT22;4013;49.744;8.118;2022-11-20T02:26:09;3.10;99.90
7936;DHT22;4013;49.744;8.118;2022-11-20T02:28:37;2.90;99.90
7936;DHT22;4013;49.744;8.118;2022-11-20T02:31:04;3.00;99.90
7936;DHT22;4013;49.744;8.118;2022-11-20T02:33:31;3.00;99.90
7936;DHT22;4013;49.744;8.118;2022-11-20T02:35:58;3.10;99.90
7936;DHT22;4013;49.744;8.118;2022-11-20T02:38:25;3.10;99.90
7936;DHT22;4013;49.744;8.118;2022-11-20T02:40:52;3.20;99.90
7936;DHT22;4013;49.744;8.118;2022-11-20T02:43:20;3.20;99.90
7936;DHT22;4013;49.744;8.118;2022-11-20T02:45:47;3.10;99.90
7936;DHT22;4013;49.744;8.118;2022-11-20T02:48:14;2.90;99.90
7936;DHT22;4013;49.744;8.118;2022-11-20T02:50:41;3.00;99.90
7936;DHT22;4013;49.744;8.118;2022-11-20T02:53:08;3.20;99.90
7936;DHT22;4013;49.744;8.118;2022-11-20T02:55:35;3.20;99.90
7936;DHT22;4013;49.744;8.118;2022-11-20T02:58:02;3.10;99.90
7936;DHT22;4013;49.744;8.118;2022-11-20T03:00:31;3.20;99.90
7936;DHT22;4013;49.744;8.118;2022-11-20T03:02:59;3.10;99.90
7936;DHT22;4013;49.744;8.118;2022-11-20T03:05:25;3.20;99.90
7936;DHT22;4013;49.744;8.118;2022-11-20T03:07:52;3.20;99.90
7936;DHT22;4013;49.744;8.118;2022-11-20T03:10:19;3.10;99.90
7936;DHT22;4013;49.744;8.118;2022-11-20T03:12:46;3.10;99.90
7936;DHT22;4013;49.744;8.118;2022-11-20T03:15:13;3.20;99.90
7936;DHT22;4013;49.744;8.118;2022-11-20T03:17:41;3.20;99.90
7936;DHT22;4013;49.744;8.118;2022-11-20T03:20:09;3.20;99.90
7936;DHT22;4013;49.744;8.118;2022-11-20T03:22:36;3.20;99.90
7936;DHT22;4013;49.744;8.118;2022-11-20T03:25:04;3.20;99.90
7936;DHT22;4013;49.744;8.118;2022-11-20T03:27:32;3.20;99.90
7936;DHT22;4013;49.744;8.118;2022-11-20T03:30:00;3.30;99.90
7936;DHT22;4013;49.744;8.118;2022-11-20T03:32:27;3.30;99.90
7936;DHT22;4013;49.744;8.118;2022-11-20T03:34:55;3.30;99.90
7936;DHT22;4013;49.744;8.118;2022-11-20T03:37:22;3.30;99.90
7936;DHT22;4013;49.744;8.118;2022-11-20T03:39:49;3.40;99.90
7936;DHT22;4013;49.744;8.118;2022-11-20T03:42:16;3.40;99.90
7936;DHT22;4013;49.744;8.118;2022-11-20T03:45:09;3.40;99.90
7936;DHT22;4013;49.744;8.118;2022-11-20T03:47:36;3.30;99.90
7936;DHT22;4013;49.744;8.118;2022-11-20T03:50:05;3.20;99.90
7936;DHT22;4013;49.744;8.118;2022-11-20T03:52:32;3.20;99.90
7936;DHT22;4013;49.744;8.118;2022-11-20T03:54:59;3.20;99.90
7936;DHT22;4013;49.744;8.118;2022-11-20T03:57:26;3.10;99.90
7936;DHT22;4013;49.744;8.118;2022-11-20T03:59:53;3.10;99.90
7936;DHT22;4013;49.744;8.118;2022-11-20T04:02:20;3.10;99.90
7936;DHT22;4013;49.744;8.118;2022-11-20T04:04:47;3.10;99.90
7936;DHT22;4013;49.744;8.118;2022-11-20T04:07:15;3.10;99.90
7936;DHT22;4013;49.744;8.118;2022-11-20T04:09:42;3.10;99.90
7936;DHT22;4013;49.744;8.118;2022-11-20T04:12:09;3.10;99.90
7936;DHT22;4013;49.744;8.118;2022-11-20T04:14:36;3.00;99.90
7936;DHT22;4013;49.744;8.118;2022-11-20T04:17:03;3.00;99.90
7936;DHT22;4013;49.744;8.118;2022-11-20T04:19:30;3.00;99.90
7936;DHT22;4013;49.744;8.118;2022-11-20T04:21:57;3.00;99.90
7936;DHT22;4013;49.744;8.118;2022-11-20T04:24:26;3.10;99.90
7936;DHT22;4013;49.744;8.118;2022-11-20T04:26:53;3.10;99.90
7936;DHT22;4013;49.744;8.118;2022-11-20T04:29:21;3.10;99.90
7936;DHT22;4013;49.744;8.118;2022-11-20T04:31:48;3.20;99.90
7936;DHT22;4013;49.744;8.118;2022-11-20T04:34:15;3.20;99.90
7936;DHT22;4013;49.744;8.118;2022-11-20T04:36:42;3.10;99.90
7936;DHT22;4013;49.744;8.118;2022-11-20T04:39:13;3.20;99.90
7936;DHT22;4013;49.744;8.118;2022-11-20T04:41:42;3.30;99.90
7936;DHT22;4013;49.744;8.118;2022-11-20T04:44:09;3.20;99.90
7936;DHT22;4013;49.744;8.118;2022-11-20T04:46:37;3.20;99.90
7936;DHT22;4013;49.744;8.118;2022-11-20T04:49:06;3.30;99.90
7936;DHT22;4013;49.744;8.118;2022-11-20T04:51:33;3.30;99.90
7936;DHT22;4013;49.744;8.118;2022-11-20T04:54:00;3.20;99.90
7936;DHT22;4013;49.744;8.118;2022-11-20T04:56:27;3.30;99.90
7936;DHT22;4013;49.744;8.118;2022-11-20T04:58:55;3.30;99.90
7936;DHT22;4013;49.744;8.118;2022-11-20T05:01:26;3.10;99.90
7936;DHT22;4013;49.744;8.118;2022-11-20T05:03:53;3.10;99.90
7936;DHT22;4013;49.744;8.118;2022-11-20T05:06:22;3.10;99.90
7936;DHT22;4013;49.744;8.118;2022-11-20T05:08:49;3.00;99.90
7936;DHT22;4013;49.744;8.118;2022-11-20T05:11:17;3.10;99.90
7936;DHT22;4013;49.744;8.118;2022-11-20T05:13:45;3.10;99.90
7936;DHT22;4013;49.744;8.118;2022-11-20T05:16:16;3.00;99.90
7936;DHT22;4013;49.744;8.118;2022-11-20T05:18:43;3.10;99.90
7936;DHT22;4013;49.744;8.118;2022-11-20T05:21:11;3.20;99.90
7936;DHT22;4013;49.744;8.118;2022-11-20T05:23:39;3.20;99.90
7936;DHT22;4013;49.744;8.118;2022-11-20T05:26:07;3.20;99.90
7936;DHT22;4013;49.744;8.118;2022-11-20T05:28:35;3.30;99.90
7936;DHT22;4013;49.744;8.118;2022-11-20T05:31:06;3.30;99.90
7936;DHT22;4013;49.744;8.118;2022-11-20T05:33:35;3.20;99.90
7936;DHT22;4013;49.744;8.118;2022-11-20T05:36:02;3.20;99.90
7936;DHT22;4013;49.744;8.118;2022-11-20T05:38:30;3.30;99.90
7936;DHT22;4013;49.744;8.118;2022-11-20T05:41:03;3.40;99.90
7936;DHT22;4013;49.744;8.118;2022-11-20T05:43:32;3.30;99.90
7936;DHT22;4013;49.744;8.118;2022-11-20T05:45:59;3.30;99.90
7936;DHT22;4013;49.744;8.118;2022-11-20T05:48:26;3.10;99.90
7936;DHT22;4013;49.744;8.118;2022-11-20T05:50:56;3.10;99.90
7936;DHT22;4013;49.744;8.118;2022-11-20T05:53:23;3.10;99.90
7936;DHT22;4013;49.744;8.118;2022-11-20T05:55:57;3.20;99.90
7936;DHT22;4013;49.744;8.118;2022-11-20T05:58:24;3.20;99.90
7936;DHT22;4013;49.744;8.118;2022-11-20T06:00:51;3.30;99.90
7936;DHT22;4013;49.744;8.118;2022-11-20T06:03:18;3.20;99.90
7936;DHT22;4013;49.744;8.118;2022-11-20T06:05:45;3.10;99.90
7936;DHT22;4013;49.744;8.118;2022-11-20T06:08:13;3.10;99.90
7936;DHT22;4013;49.744;8.118;2022-11-20T06:10:40;3.00;99.90
7936;DHT22;4013;49.744;8.118;2022-11-20T06:13:07;3.10;99.90
7936;DHT22;4013;49.744;8.118;2022-11-20T06:15:34;3.20;99.90
7936;DHT22;4013;49.744;8.118;2022-11-20T06:18:01;3.20;99.90
7936;DHT22;4013;49.744;8.118;2022-11-20T06:20:28;3.20;99.90
7936;DHT22;4013;49.744;8.118;2022-11-20T06:22:55;3.20;99.90
7936;DHT22;4013;49.744;8.118;2022-11-20T06:25:23;3.20;99.90
7936;DHT22;4013;49.744;8.118;2022-11-20T06:27:50;3.20;99.90
7936;DHT22;4013;49.744;8.118;2022-11-20T06:30:17;3.30;99.90
7936;DHT22;4013;49.744;8.118;2022-11-20T06:32:44;3.30;99.90
7936;DHT22;4013;49.744;8.118;2022-11-20T06:35:11;3.20;99.90
7936;DHT22;4013;49.744;8.118;2022-11-20T06:37:38;3.20;99.90
7936;DHT22;4013;49.744;8.118;2022-11-20T06:40:06;3.20;99.90
7936;DHT22;4013;49.744;8.118;2022-11-20T06:42:35;3.20;99.90
7936;DHT22;4013;49.744;8.118;2022-11-20T06:45:02;3.40;99.90
7936;DHT22;4013;49.744;8.118;2022-11-20T06:47:29;3.40;99.90
7936;DHT22;4013;49.744;8.118;2022-11-20T06:49:56;3.40;99.90
7936;DHT22;4013;49.744;8.118;2022-11-20T06:52:23;3.40;99.90
7936;DHT22;4013;49.744;8.118;2022-11-20T06:54:50;3.40;99.90
7936;DHT22;4013;49.744;8.118;2022-11-20T06:57:17;3.50;99.90
7936;DHT22;4013;49.744;8.118;2022-11-20T06:59:45;3.40;99.90
7936;DHT22;4013;49.744;8.118;2022-11-20T07:02:12;3.40;99.90
7936;DHT22;4013;49.744;8.118;2022-11-20T07:04:39;3.40;99.90
7936;DHT22;4013;49.744;8.118;2022-11-20T07:07:06;3.40;99.90
7936;DHT22;4013;49.744;8.118;2022-11-20T07:09:33;3.30;99.90
7936;DHT22;4013;49.744;8.118;2022-11-20T07:12:00;3.40;99.90
7936;DHT22;4013;49.744;8.118;2022-11-20T07:14:27;3.50;99.90
7936;DHT22;4013;49.744;8.118;2022-11-20T07:16:55;3.40;99.90
7936;DHT22;4013;49.744;8.118;2022-11-20T07:19:22;3.30;99.90
7936;DHT22;4013;49.744;8.118;2022-11-20T07:21:49;3.40;99.90
7936;DHT22;4013;49.744;8.118;2022-11-20T07:24:16;3.40;99.90
7936;DHT22;4013;49.744;8.118;2022-11-20T07:26:46;3.50;99.90
7936;DHT22;4013;49.744;8.118;2022-11-20T07:29:14;3.50;99.90
7936;DHT22;4013;49.744;8.118;2022-11-20T07:31:42;3.50;99.90
7936;DHT22;4013;49.744;8.118;2022-11-20T07:34:10;3.50;99.90
7936;DHT22;4013;49.744;8.118;2022-11-20T07:36:37;3.60;99.90
7936;DHT22;4013;49.744;8.118;2022-11-20T07:39:04;3.60;99.90
7936;DHT22;4013;49.744;8.118;2022-11-20T07:41:31;3.40;99.90
7936;DHT22;4013;49.744;8.118;2022-11-20T07:43:58;3.50;99.90
7936;DHT22;4013;49.744;8.118;2022-11-20T07:46:25;3.50;99.90
7936;DHT22;4013;49.744;8.118;2022-11-20T07:48:52;3.60;99.90
7936;DHT22;4013;49.744;8.118;2022-11-20T07:51:20;3.60;99.90
7936;DHT22;4013;49.744;8.118;2022-11-20T07:53:47;3.60;99.90
7936;DHT22;4013;49.744;8.118;2022-11-20T07:56:16;3.70;99.90
7936;DHT22;4013;49.744;8.118;2022-11-20T07:58:43;3.70;99.90
7936;DHT22;4013;49.744;8.118;2022-11-20T08:01:10;3.70;99.90
7936;DHT22;4013;49.744;8.118;2022-11-20T08:03:37;3.70;99.90
7936;DHT22;4013;49.744;8.118;2022-11-20T08:06:04;3.70;99.90
7936;DHT22;4013;49.744;8.118;2022-11-20T08:08:33;3.70;99.90
7936;DHT22;4013;49.744;8.118;2022-11-20T08:11:00;3.80;99.90
7936;DHT22;4013;49.744;8.118;2022-11-20T08:13:41;3.60;99.90
7936;DHT22;4013;49.744;8.118;2022-11-20T08:16:25;3.60;99.90
7936;DHT22;4013;49.744;8.118;2022-11-20T08:18:52;3.70;99.90
7936;DHT22;4013;49.744;8.118;2022-11-20T08:21:19;3.70;99.90
7936;DHT22;4013;49.744;8.118;2022-11-20T08:23:47;3.80;99.90
7936;DHT22;4013;49.744;8.118;2022-11-20T08:26:14;3.70;99.90
7936;DHT22;4013;49.744;8.118;2022-11-20T08:28:41;3.70;99.90
7936;DHT22;4013;49.744;8.118;2022-11-20T08:31:08;3.70;99.90
7936;DHT22;4013;49.744;8.118;2022-11-20T08:33:36;3.70;99.90
7936;DHT22;4013;49.744;8.118;2022-11-20T08:36:03;3.70;99.90
7936;DHT22;4013;49.744;8.118;2022-11-20T08:38:32;3.70;99.90
7936;DHT22;4013;49.744;8.118;2022-11-20T08:41:02;3.70;99.90
7936;DHT22;4013;49.744;8.118;2022-11-20T08:43:47;3.70;99.90
7936;DHT22;4013;49.744;8.118;2022-11-20T08:46:14;3.80;99.90
7936;DHT22;4013;49.744;8.118;2022-11-20T08:48:41;3.80;99.90
7936;DHT22;4013;49.744;8.118;2022-11-20T08:51:08;3.70;99.90
7936;DHT22;4013;49.744;8.118;2022-11-20T08:53:35;3.80;99.90
7936;DHT22;4013;49.744;8.118;2022-11-20T08:56:05;3.80;99.90
7936;DHT22;4013;49.744;8.118;2022-11-20T08:58:32;3.90;99.90
7936;DHT22;4013;49.744;8.118;2022-11-20T09:00:59;3.90;99.90
7936;DHT22;4013;49.744;8.118;2022-11-20T09:03:26;4.10;99.90
7936;DHT22;4013;49.744;8.118;2022-11-20T09:05:57;4.10;99.90
7936;DHT22;4013;49.744;8.118;2022-11-20T09:08:24;4.10;99.90
7936;DHT22;4013;49.744;8.118;2022-11-20T09:10:51;4.10;99.90
7936;DHT22;4013;49.744;8.118;2022-11-20T09:13:20;4.00;99.90
7936;DHT22;4013;49.744;8.118;2022-11-20T09:15:47;4.10;99.90
7936;DHT22;4013;49.744;8.118;2022-11-20T09:18:19;4.00;99.90
7936;DHT22;4013;49.744;8.118;2022-11-20T09:20:46;4.10;99.90
7936;DHT22;4013;49.744;8.118;2022-11-20T09:23:13;4.00;99.90
7936;DHT22;4013;49.744;8.118;2022-11-20T09:25:40;4.00;99.90
7936;DHT22;4013;49.744;8.118;2022-11-20T09:28:07;4.00;99.90
7936;DHT22;4013;49.744;8.118;2022-11-20T09:30:35;4.00;99.90
7936;DHT22;4013;49.744;8.118;2022-11-20T09:33:04;4.00;99.90
7936;DHT22;4013;49.744;8.118;2022-11-20T09:35:31;3.90;99.90
7936;DHT22;4013;49.744;8.118;2022-11-20T09:38:03;4.00;99.90
7936;DHT22;4013;49.744;8.118;2022-11-20T09:40:30;4.00;99.90
7936;DHT22;4013;49.744;8.118;2022-11-20T09:43:01;4.00;99.90
7936;DHT22;4013;49.744;8.118;2022-11-20T09:45:48;4.10;99.90
7936;DHT22;4013;49.744;8.118;2022-11-20T09:48:37;4.20;99.90
7936;DHT22;4013;49.744;8.118;2022-11-20T09:51:16;4.20;99.90
7936;DHT22;4013;49.744;8.118;2022-11-20T09:53:56;4.20;99.90
7936;DHT22;4013;49.744;8.118;2022-11-20T09:56:28;4.10;99.90
7936;DHT22;4013;49.744;8.118;2022-11-20T09:58:59;4.20;99.90
7936;DHT22;4013;49.744;8.118;2022-11-20T10:01:31;4.20;99.90
7936;DHT22;4013;49.744;8.118;2022-11-20T10:04:02;4.30;99.90
7936;DHT22;4013;49.744;8.118;2022-11-20T10:06:31;4.40;99.90
7936;DHT22;4013;49.744;8.118;2022-11-20T10:09:04;4.40;99.90
7936;DHT22;4013;49.744;8.118;2022-11-20T10:11:41;4.40;99.90
7936;DHT22;4013;49.744;8.118;2022-11-20T10:14:21;4.40;99.90
7936;DHT22;4013;49.744;8.118;2022-11-20T10:17:02;4.30;99.90
7936;DHT22;4013;49.744;8.118;2022-11-20T10:19:42;4.30;99.90
7936;DHT22;4013;49.744;8.118;2022-11-20T10:22:20;4.30;99.90
7936;DHT22;4013;49.744;8.118;2022-11-20T10:24:56;4.20;99.90
7936;DHT22;4013;49.744;8.118;2022-11-20T10:27:37;4.30;99.90
7936;DHT22;4013;49.744;8.118;2022-11-20T10:30:09;4.30;99.90
7936;DHT22;4013;49.744;8.118;2022-11-20T10:32:40;4.40;99.90
7936;DHT22;4013;49.744;8.118;2022-11-20T10:35:19;4.50;99.90
7936;DHT22;4013;49.744;8.118;2022-11-20T10:37:49;4.50;99.90
7936;DHT22;4013;49.744;8.118;2022-11-20T10:40:25;4.40;99.90
7936;DHT22;4013;49.744;8.118;2022-11-20T10:42:56;4.40;99.90
7936;DHT22;4013;49.744;8.118;2022-11-20T10:45:38;4.50;99.90
7936;DHT22;4013;49.744;8.118;2022-11-20T10:48:15;4.60;99.90
7936;DHT22;4013;49.744;8.118;2022-11-20T10:51:03;4.50;99.90
7936;DHT22;4013;49.744;8.118;2022-11-20T10:53:43;4.60;99.90
7936;DHT22;4013;49.744;8.118;2022-11-20T10:56:17;4.80;99.90
7936;DHT22;4013;49.744;8.118;2022-11-20T11:01:31;5.00;99.90
7936;DHT22;4013;49.744;8.118;2022-11-20T11:03:59;5.00;99.90
7936;DHT22;4013;49.744;8.118;2022-11-20T11:06:32;5.10;99.90
7936;DHT22;4013;49.744;8.118;2022-11-20T11:09:03;5.20;99.90
7936;DHT22;4013;49.744;8.118;2022-11-20T11:11:33;5.30;99.90
7936;DHT22;4013;49.744;8.118;2022-11-20T11:14:06;5.40;99.90
7936;DHT22;4013;49.744;8.118;2022-11-20T11:16:34;5.30;99.90
7936;DHT22;4013;49.744;8.118;2022-11-20T11:19:07;5.40;99.90
7936;DHT22;4013;49.744;8.118;2022-11-20T11:21:38;5.30;99.90
7936;DHT22;4013;49.744;8.118;2022-11-20T11:24:19;5.30;99.90
7936;DHT22;4013;49.744;8.118;2022-11-20T11:26:52;5.30;99.90
7936;DHT22;4013;49.744;8.118;2022-11-20T11:29:20;5.30;99.90
7936;DHT22;4013;49.744;8.118;2022-11-20T11:31:47;5.40;99.90
7936;DHT22;4013;49.744;8.118;2022-11-20T11:34:16;5.40;99.90
7936;DHT22;4013;49.744;8.118;2022-11-20T11:36:50;5.50;99.90
7936;DHT22;4013;49.744;8.118;2022-11-20T11:39:20;5.50;99.90
7936;DHT22;4013;49.744;8.118;2022-11-20T11:41:47;5.60;99.90
7936;DHT22;4013;49.744;8.118;2022-11-20T11:44:17;5.70;99.90
7936;DHT22;4013;49.744;8.118;2022-11-20T11:47:04;5.70;99.90
7936;DHT22;4013;49.744;8.118;2022-11-20T11:49:33;5.90;99.90
7936;DHT22;4013;49.744;8.118;2022-11-20T11:52:04;6.10;99.90
7936;DHT22;4013;49.744;8.118;2022-11-20T11:54:38;6.20;99.90
7936;DHT22;4013;49.744;8.118;2022-11-20T11:57:14;6.30;99.90
7936;DHT22;4013;49.744;8.118;2022-11-20T11:59:51;6.40;99.90
7936;DHT22;4013;49.744;8.118;2022-11-20T12:02:29;6.50;99.90
7936;DHT22;4013;49.744;8.118;2022-11-20T12:05:03;6.60;99.90
7936;DHT22;4013;49.744;8.118;2022-11-20T12:07:39;6.60;99.90
7936;DHT22;4013;49.744;8.118;2022-11-20T12:10:16;6.60;99.90
7936;DHT22;4013;49.744;8.118;2022-11-20T12:12:46;6.60;99.90
7936;DHT22;4013;49.744;8.118;2022-11-20T12:15:29;6.70;99.90
7936;DHT22;4013;49.744;8.118;2022-11-20T12:17:56;6.80;99.90
7936;DHT22;4013;49.744;8.118;2022-11-20T12:20:29;6.80;99.90
7936;DHT22;4013;49.744;8.118;2022-11-20T12:23:05;6.90;99.90
7936;DHT22;4013;49.744;8.118;2022-11-20T12:25:35;6.90;99.90
7936;DHT22;4013;49.744;8.118;2022-11-20T12:28:15;6.90;99.90
7936;DHT22;4013;49.744;8.118;2022-11-20T12:30:54;6.90;99.90
7936;DHT22;4013;49.744;8.118;2022-11-20T12:33:45;7.00;99.90
7936;DHT22;4013;49.744;8.118;2022-11-20T12:36:22;7.20;99.90
7936;DHT22;4013;49.744;8.118;2022-11-20T12:39:03;7.40;99.90
7936;DHT22;4013;49.744;8.118;2022-11-20T12:41:51;7.50;99.90
7936;DHT22;4013;49.744;8.118;2022-11-20T12:45:10;7.50;99.90
7936;DHT22;4013;49.744;8.118;2022-11-20T12:48:16;7.60;99.90
7936;DHT22;4013;49.744;8.118;2022-11-20T12:50:52;7.60;99.90
7936;DHT22;4013;49.744;8.118;2022-11-20T12:53:33;7.60;99.90
7936;DHT22;4013;49.744;8.118;2022-11-20T12:56:24;7.60;99.90
7936;DHT22;4013;49.744;8.118;2022-11-20T12:59:06;7.60;99.90
7936;DHT22;4013;49.744;8.118;2022-11-20T13:01:43;7.60;99.90
7936;DHT22;4013;49.744;8.118;2022-11-20T13:04:29;7.60;99.90
7936;DHT22;4013;49.744;8.118;2022-11-20T13:07:02;7.70;99.90
7936;DHT22;4013;49.744;8.118;2022-11-20T13:09:33;7.70;99.90
7936;DHT22;4013;49.744;8.118;2022-11-20T13:12:06;7.70;99.90
7936;DHT22;4013;49.744;8.118;2022-11-20T13:14:39;7.70;99.90
7936;DHT22;4013;49.744;8.118;2022-11-20T13:17:11;7.70;99.90
7936;DHT22;4013;49.744;8.118;2022-11-20T13:19:40;7.80;99.90
7936;DHT22;4013;49.744;8.118;2022-11-20T13:22:08;7.80;99.90
7936;DHT22;4013;49.744;8.118;2022-11-20T13:24:37;7.80;99.90
7936;DHT22;4013;49.744;8.118;2022-11-20T13:27:18;7.90;99.90
7936;DHT22;4013;49.744;8.118;2022-11-20T13:29:59;7.90;99.90
7936;DHT22;4013;49.744;8.118;2022-11-20T13:32:27;7.90;99.90
7936;DHT22;4013;49.744;8.118;2022-11-20T13:34:59;7.90;99.90
7936;DHT22;4013;49.744;8.118;2022-11-20T13:37:29;7.90;99.90
7936;DHT22;4013;49.744;8.118;2022-11-20T13:40:19;7.90;99.90
7936;DHT22;4013;49.744;8.118;2022-11-20T13:42:55;8.00;99.90
7936;DHT22;4013;49.744;8.118;2022-11-20T13:45:24;8.10;99.90
7936;DHT22;4013;49.744;8.118;2022-11-20T13:47:52;8.10;99.90
7936;DHT22;4013;49.744;8.118;2022-11-20T13:50:38;8.00;99.90
7936;DHT22;4013;49.744;8.118;2022-11-20T13:53:16;8.00;99.90
7936;DHT22;4013;49.744;8.118;2022-11-20T13:55:54;8.10;99.90
7936;DHT22;4013;49.744;8.118;2022-11-20T13:58:30;8.00;99.90
7936;DHT22;4013;49.744;8.118;2022-11-20T14:01:09;8.00;99.90
7936;DHT22;4013;49.744;8.118;2022-11-20T14:03:38;8.00;99.90
7936;DHT22;4013;49.744;8.118;2022-11-20T14:06:11;8.00;99.90
7936;DHT22;4013;49.744;8.118;2022-11-20T14:08:42;8.00;99.90
7936;DHT22;4013;49.744;8.118;2022-11-20T14:11:17;7.90;99.90
7936;DHT22;4013;49.744;8.118;2022-11-20T14:13:54;7.90;99.90
7936;DHT22;4013;49.744;8.118;2022-11-20T14:16:22;7.90;99.90
7936;DHT22;4013;49.744;8.118;2022-11-20T14:18:49;7.80;99.90
7936;DHT22;4013;49.744;8.118;2022-11-20T14:21:22;7.80;99.90
7936;DHT22;4013;49.744;8.118;2022-11-20T14:23:53;7.80;99.90
7936;DHT22;4013;49.744;8.118;2022-11-20T14:26:21;7.80;99.90
7936;DHT22;4013;49.744;8.118;2022-11-20T14:28:50;7.80;99.90
7936;DHT22;4013;49.744;8.118;2022-11-20T14:31:23;7.80;99.90
7936;DHT22;4013;49.744;8.118;2022-11-20T14:33:51;7.80;99.90
7936;DHT22;4013;49.744;8.118;2022-11-20T14:36:20;7.80;99.90
7936;DHT22;4013;49.744;8.118;2022-11-20T14:38:49;7.80;99.90
7936;DHT22;4013;49.744;8.118;2022-11-20T14:41:18;7.70;99.90
7936;DHT22;4013;49.744;8.118;2022-11-20T14:43:51;7.70;99.90
7936;DHT22;4013;49.744;8.118;2022-11-20T14:46:19;7.70;99.90
7936;DHT22;4013;49.744;8.118;2022-11-20T14:48:47;7.60;99.90
7936;DHT22;4013;49.744;8.118;2022-11-20T14:51:30;7.50;99.90
7936;DHT22;4013;49.744;8.118;2022-11-20T14:54:08;7.50;99.90
7936;DHT22;4013;49.744;8.118;2022-11-20T14:56:36;7.50;99.90
7936;DHT22;4013;49.744;8.118;2022-11-20T14:59:04;7.60;99.90
7936;DHT22;4013;49.744;8.118;2022-11-20T15:01:33;7.50;99.90
7936;DHT22;4013;49.744;8.118;2022-11-20T15:04:02;7.50;99.90
7936;DHT22;4013;49.744;8.118;2022-11-20T15:06:31;7.50;99.90
7936;DHT22;4013;49.744;8.118;2022-11-20T15:08:58;7.60;99.90
7936;DHT22;4013;49.744;8.118;2022-11-20T15:11:30;7.60;99.90
7936;DHT22;4013;49.744;8.118;2022-11-20T15:13:58;7.60;99.90
7936;DHT22;4013;49.744;8.118;2022-11-20T15:16:30;7.60;99.90
7936;DHT22;4013;49.744;8.118;2022-11-20T15:18:57;7.50;99.90
7936;DHT22;4013;49.744;8.118;2022-11-20T15:21:24;7.30;99.90
7936;DHT22;4013;49.744;8.118;2022-11-20T15:23:51;7.40;99.90
7936;DHT22;4013;49.744;8.118;2022-11-20T15:26:23;7.40;99.90
7936;DHT22;4013;49.744;8.118;2022-11-20T15:28:51;7.40;99.90
7936;DHT22;4013;49.744;8.118;2022-11-20T15:31:20;7.30;99.90
7936;DHT22;4013;49.744;8.118;2022-11-20T15:33:49;7.30;99.90
7936;DHT22;4013;49.744;8.118;2022-11-20T15:36:16;7.30;99.90
7936;DHT22;4013;49.744;8.118;2022-11-20T15:38:43;7.40;99.90
7936;DHT22;4013;49.744;8.118;2022-11-20T15:41:10;7.40;99.90
7936;DHT22;4013;49.744;8.118;2022-11-20T15:43:37;7.40;99.90
7936;DHT22;4013;49.744;8.118;2022-11-20T15:46:09;7.40;99.90
7936;DHT22;4013;49.744;8.118;2022-11-20T15:48:39;7.40;99.90
7936;DHT22;4013;49.744;8.118;2022-11-20T15:51:17;7.40;99.90
7936;DHT22;4013;49.744;8.118;2022-11-20T15:53:48;7.40;99.90
7936;DHT22;4013;49.744;8.118;2022-11-20T15:56:15;7.40;99.90
7936;DHT22;4013;49.744;8.118;2022-11-20T15:58:41;7.30;99.90
7936;DHT22;4013;49.744;8.118;2022-11-20T16:01:10;7.30;99.90
7936;DHT22;4013;49.744;8.118;2022-11-20T16:03:38;7.30;99.90
7936;DHT22;4013;49.744;8.118;2022-11-20T16:06:05;7.30;99.90
7936;DHT22;4013;49.744;8.118;2022-11-20T16:08:34;7.30;99.90
7936;DHT22;4013;49.744;8.118;2022-11-20T16:11:01;7.20;99.90
7936;DHT22;4013;49.744;8.118;2022-11-20T16:13:28;7.30;99.90
7936;DHT22;4013;49.744;8.118;2022-11-20T16:16:19;7.40;99.90
7936;DHT22;4013;49.744;8.118;2022-11-20T16:18:47;7.40;99.90
7936;DHT22;4013;49.744;8.118;2022-11-20T16:21:14;7.30;99.90
7936;DHT22;4013;49.744;8.118;2022-11-20T16:23:43;7.30;99.90
7936;DHT22;4013;49.744;8.118;2022-11-20T16:26:10;7.40;99.90
7936;DHT22;4013;49.744;8.118;2022-11-20T16:28:37;7.40;99.90
7936;DHT22;4013;49.744;8.118;2022-11-20T16:31:11;7.40;99.90
7936;DHT22;4013;49.744;8.118;2022-11-20T16:33:39;7.30;99.90
7936;DHT22;4013;49.744;8.118;2022-11-20T16:36:10;7.30;99.90
7936;DHT22;4013;49.744;8.118;2022-11-20T16:38:37;7.30;99.90
7936;DHT22;4013;49.744;8.118;2022-11-20T16:41:06;7.40;99.90